aviador You're here:

KROG Decoded Metar

ROGERS in AR, USA
Report Time2017-05-26 12:58:00
UTC Time2017-05-26 13:10:44
Flight Rules vfr VFR
Wind110° at 07 kt
W.Decomp.*RWY 02: 0.5 kt HW 7.0 kt RCW
W.Rank110° ranks 5
Current wind is above 110° avg. (6.6)
Visibility9999 m
Phenomena:N/A
Clouds:N/A
Expected CloudBase > 1,600 ft AGL from Temp-Dew spread
CeilingNone
Temp21°C (ISA +9)
Dew Point17°C (78% RH)
AAT20.9°C
QNH1006 hPa
Density Alt2,877 ft
Elevation1,362 ft
Report Wrong Elevation
Raw Report
KROG 261258Z 11007KT 10SM CLR 21/17 A2972 RMK AO2 SLP049
T02110172=

Extra information for KROG:More info

Metar Taf Metar & Taf Last 4 Metars F.Rules Stats Wind Profile Meteogram Temp Stats Airport Information Weather charts Add Link Nearby VenuesMetar ALERT Operation Metar Decoded Social comments

AIRNAV info for KROG